Time;durP1;ratioP1;P1;durP2;ratioP2;P2;SDS_P1;SDS_P2;PMS_P1;PMS_P2;Temp;Humidity;BMP_temperature;BMP_pressure;BME280_temperature;BME280_humidity;BME280_pressure;Samples;Min_cycle;Max_cycle;Signal;HPM_P1;HPM_P2
2022/05/21 00:00:14;;;;;;;27.50;19.98;;;;;;;;;;7392114;19;20040;-57
2022/05/21 00:02:43;;;;;;;30.55;20.77;;;;;;;;;;7394244;19;20524;-60
2022/05/21 00:05:12;;;;;;;30.70;20.50;;;;;;;;;;7394399;19;20006;-60
2022/05/21 00:07:41;;;;;;;25.92;18.80;;;;;;;;;;7393074;19;20074;-60
2022/05/21 00:10:13;;;;;;;28.60;19.73;;;;;;;;;;7392072;19;20082;-60
2022/05/21 00:12:42;;;;;;;26.73;19.55;;;;;;;;;;7392850;19;20018;-59
2022/05/21 00:15:12;;;;;;;24.98;18.60;;;;;;;;;;7393100;19;20006;-60
2022/05/21 00:17:40;;;;;;;29.15;19.67;;;;;;;;;;7393144;19;20030;-59
2022/05/21 00:20:47;;;;;;;27.50;20.05;;;;;;;;;;7391622;19;20347;-60
2022/05/21 00:22:58;;;;;;;24.05;17.80;;;;;;;;;;7392512;19;20011;-60
2022/05/21 00:25:29;;;;;;;34.10;20.08;;;;;;;;;;7393190;19;20028;-59
2022/05/21 00:27:58;;;;;;;25.15;18.67;;;;;;;;;;7390417;19;20646;-58
2022/05/21 00:30:27;;;;;;;24.67;18.70;;;;;;;;;;7390672;19;20024;-59
2022/05/21 00:32:55;;;;;;;26.25;17.70;;;;;;;;;;7390303;19;20490;-58
2022/05/21 00:35:24;;;;;;;25.42;18.27;;;;;;;;;;7392577;19;20044;-59
2022/05/21 00:37:52;;;;;;;27.13;19.15;;;;;;;;;;7391478;19;20018;-57
2022/05/21 00:40:21;;;;;;;26.67;18.67;;;;;;;;;;7390835;19;20464;-59
2022/05/21 00:42:52;;;;;;;22.08;18.90;;;;;;;;;;7391942;19;20090;-60
2022/05/21 00:45:21;;;;;;;25.27;19.92;;;;;;;;;;7392492;19;20022;-60
2022/05/21 00:47:49;;;;;;;26.50;20.35;;;;;;;;;;7391984;19;20017;-58
2022/05/21 00:50:20;;;;;;;28.52;21.10;;;;;;;;;;7389906;19;20416;-60
2022/05/21 00:52:50;;;;;;;28.85;21.35;;;;;;;;;;7390275;19;20022;-58
2022/05/21 00:55:20;;;;;;;28.85;21.52;;;;;;;;;;7392064;19;20088;-60
2022/05/21 00:57:49;;;;;;;30.77;22.15;;;;;;;;;;7392016;19;20007;-58
2022/05/21 01:00:20;;;;;;;30.40;22.70;;;;;;;;;;7390726;19;20523;-58
2022/05/21 01:02:50;;;;;;;31.20;23.13;;;;;;;;;;7391380;19;20021;-54
2022/05/21 01:05:20;;;;;;;30.77;22.73;;;;;;;;;;7392512;19;20015;-59
2022/05/21 01:07:49;;;;;;;29.70;22.85;;;;;;;;;;7391681;19;20014;-60
2022/05/21 01:10:19;;;;;;;33.08;24.52;;;;;;;;;;7390316;19;20019;-60
2022/05/21 01:12:50;;;;;;;32.22;23.67;;;;;;;;;;7391859;19;20022;-59
2022/05/21 01:15:22;;;;;;;31.20;24.13;;;;;;;;;;7392514;19;20482;-55
2022/05/21 01:17:51;;;;;;;28.15;22.83;;;;;;;;;;7390918;19;20015;-57
2022/05/21 01:20:21;;;;;;;27.60;21.33;;;;;;;;;;7397542;19;20025;-54
2022/05/21 01:22:54;;;;;;;28.27;21.33;;;;;;;;;;7410395;19;20011;-57
2022/05/21 01:25:24;;;;;;;28.95;21.75;;;;;;;;;;7412245;19;20014;-60
2022/05/21 01:27:53;;;;;;;29.08;22.08;;;;;;;;;;7412095;19;20051;-59
2022/05/21 01:30:24;;;;;;;29.15;21.65;;;;;;;;;;7410933;19;20035;-59
2022/05/21 01:32:53;;;;;;;29.92;22.35;;;;;;;;;;7403255;19;20033;-59
2022/05/21 01:35:21;;;;;;;27.50;21.35;;;;;;;;;;7399782;19;20086;-60
2022/05/21 01:37:52;;;;;;;31.27;22.45;;;;;;;;;;7394106;19;20010;-60
2022/05/21 01:40:21;;;;;;;32.13;21.38;;;;;;;;;;7394385;19;20394;-59
2022/05/21 01:44:37;;;;;;;28.55;21.70;;;;;;;;;;7398504;19;20017;-59
2022/05/21 01:45:36;;;;;;;30.33;21.70;;;;;;;;;;7397112;19;20018;-58
2022/05/21 01:48:05;;;;;;;29.15;20.55;;;;;;;;;;7400256;19;20011;-59
2022/05/21 01:50:34;;;;;;;31.75;21.38;;;;;;;;;;7400852;19;20007;-59
2022/05/21 01:53:06;;;;;;;30.88;22.10;;;;;;;;;;7399621;19;20017;-59
2022/05/21 01:55:34;;;;;;;30.60;21.45;;;;;;;;;;7401872;19;20647;-54
2022/05/21 01:58:02;;;;;;;28.27;21.77;;;;;;;;;;7400824;19;20102;-57
2022/05/21 02:00:35;;;;;;;33.72;23.27;;;;;;;;;;7397885;19;20014;-58
2022/05/21 02:03:04;;;;;;;31.17;22.08;;;;;;;;;;7396967;19;20014;-59
2022/05/21 02:05:32;;;;;;;31.83;21.95;;;;;;;;;;7397530;19;20018;-59
2022/05/21 02:08:01;;;;;;;28.90;20.88;;;;;;;;;;7395949;19;20010;-59
2022/05/21 02:10:32;;;;;;;33.40;21.40;;;;;;;;;;7395978;19;20014;-59
2022/05/21 02:13:02;;;;;;;30.58;20.75;;;;;;;;;;7396106;19;20341;-53
2022/05/21 02:15:31;;;;;;;27.15;20.58;;;;;;;;;;7396196;19;20017;-58
2022/05/21 02:17:59;;;;;;;28.42;20.35;;;;;;;;;;7397095;19;20022;-60
2022/05/21 02:20:28;;;;;;;33.33;21.60;;;;;;;;;;7394722;19;20007;-59
2022/05/21 02:22:56;;;;;;;29.42;20.67;;;;;;;;;;7396598;19;20074;-59
2022/05/21 02:25:25;;;;;;;30.75;20.52;;;;;;;;;;7396303;19;20022;-54
2022/05/21 02:27:56;;;;;;;31.05;21.40;;;;;;;;;;7395341;19;20019;-60
2022/05/21 02:30:24;;;;;;;29.80;21.40;;;;;;;;;;7397167;19;20359;-59
2022/05/21 02:32:53;;;;;;;33.13;21.88;;;;;;;;;;7394695;19;20015;-59
2022/05/21 02:35:21;;;;;;;30.55;20.38;;;;;;;;;;7397154;19;20371;-59
2022/05/21 02:40:31;;;;;;;36.25;22.02;;;;;;;;;;7393890;19;20041;-61
2022/05/21 02:43:02;;;;;;;31.50;20.60;;;;;;;;;;7395762;19;20010;-55
2022/05/21 02:45:31;;;;;;;34.53;21.00;;;;;;;;;;7395734;19;20477;-55
2022/05/21 02:48:00;;;;;;;31.40;20.83;;;;;;;;;;7395402;19;20111;-59
2022/05/21 02:50:30;;;;;;;29.52;20.85;;;;;;;;;;7394088;19;20019;-59
2022/05/21 02:52:59;;;;;;;29.95;20.80;;;;;;;;;;7394657;19;20021;-56
2022/05/21 02:55:27;;;;;;;30.75;20.42;;;;;;;;;;7398348;19;20023;-56
2022/05/21 02:57:56;;;;;;;31.42;21.63;;;;;;;;;;7401372;19;20074;-59
2022/05/21 03:00:29;;;;;;;36.88;20.30;;;;;;;;;;7393652;19;20018;-59
2022/05/21 03:02:58;;;;;;;33.47;21.10;;;;;;;;;;7396103;19;20014;-62
2022/05/21 03:05:26;;;;;;;32.33;20.90;;;;;;;;;;7396565;19;20015;-61
2022/05/21 03:07:55;;;;;;;32.97;21.35;;;;;;;;;;7392443;19;20017;-58
2022/05/21 03:10:23;;;;;;;29.02;20.20;;;;;;;;;;7397278;19;20069;-58
2022/05/21 03:12:52;;;;;;;30.63;20.30;;;;;;;;;;7393621;19;20069;-57
2022/05/21 03:15:21;;;;;;;31.33;19.98;;;;;;;;;;7393675;19;20010;-55
2022/05/21 03:17:53;;;;;;;28.83;20.70;;;;;;;;;;7395370;19;20030;-57
2022/05/21 03:20:22;;;;;;;32.80;19.92;;;;;;;;;;7393221;19;20052;-58
2022/05/21 03:22:51;;;;;;;33.88;20.50;;;;;;;;;;7393651;19;20105;-60
2022/05/21 03:25:19;;;;;;;37.85;20.85;;;;;;;;;;7393504;19;20029;-56
2022/05/21 03:27:50;;;;;;;32.22;20.83;;;;;;;;;;7393842;19;20086;-60
2022/05/21 03:30:19;;;;;;;32.42;20.15;;;;;;;;;;7393587;19;20451;-55
2022/05/21 03:32:48;;;;;;;29.75;20.13;;;;;;;;;;7393098;19;20391;-57
2022/05/21 03:35:20;;;;;;;31.52;20.80;;;;;;;;;;7394262;19;20018;-59
2022/05/21 03:37:48;;;;;;;32.83;20.48;;;;;;;;;;7393102;19;20070;-59
2022/05/21 03:40:18;;;;;;;30.85;20.60;;;;;;;;;;7392921;19;20774;-57
2022/05/21 03:42:47;;;;;;;32.67;21.02;;;;;;;;;;7394337;19;20731;-61
2022/05/21 03:45:16;;;;;;;34.83;21.75;;;;;;;;;;7334278;19;20033;-61
2022/05/21 03:47:45;;;;;;;36.17;21.15;;;;;;;;;;7394273;19;20021;-62
2022/05/21 03:50:15;;;;;;;34.83;21.30;;;;;;;;;;7397939;19;20055;-59
2022/05/21 03:52:46;;;;;;;32.10;20.73;;;;;;;;;;7392661;19;20360;-55
2022/05/21 03:55:17;;;;;;;33.95;21.17;;;;;;;;;;7392919;19;20006;-52
2022/05/21 03:57:45;;;;;;;33.38;20.95;;;;;;;;;;7394704;19;20015;-56
2022/05/21 04:00:16;;;;;;;33.45;21.02;;;;;;;;;;7392021;19;20017;-62
2022/05/21 04:02:46;;;;;;;31.38;20.45;;;;;;;;;;7390808;19;20178;-57
2022/05/21 04:05:15;;;;;;;31.60;21.00;;;;;;;;;;7393822;19;20452;-58
2022/05/21 04:07:47;;;;;;;31.88;19.98;;;;;;;;;;7392828;19;20029;-58
2022/05/21 04:10:16;;;;;;;31.70;20.30;;;;;;;;;;7392241;19;20070;-59
2022/05/21 04:12:45;;;;;;;35.28;20.45;;;;;;;;;;7392875;19;20034;-59
2022/05/21 04:15:14;;;;;;;39.85;20.67;;;;;;;;;;7392681;19;20006;-55
2022/05/21 04:17:42;;;;;;;27.55;19.58;;;;;;;;;;7394295;19;20019;-59
2022/05/21 04:20:13;;;;;;;34.72;19.75;;;;;;;;;;7392063;19;20010;-58
2022/05/21 04:22:41;;;;;;;32.05;20.27;;;;;;;;;;7393475;19;20018;-58
2022/05/21 04:25:13;;;;;;;35.00;19.83;;;;;;;;;;7394068;19;20007;-56
2022/05/21 04:27:41;;;;;;;35.50;20.27;;;;;;;;;;7391890;19;20497;-60
2022/05/21 04:30:11;;;;;;;34.47;18.95;;;;;;;;;;7391381;19;20010;-56
2022/05/21 04:32:40;;;;;;;35.55;19.88;;;;;;;;;;7392324;19;20014;-57
2022/05/21 04:35:09;;;;;;;33.55;19.38;;;;;;;;;;7392312;19;20018;-60
2022/05/21 04:37:38;;;;;;;31.90;18.42;;;;;;;;;;7391679;19;20376;-60
2022/05/21 04:40:08;;;;;;;31.73;18.50;;;;;;;;;;7390969;19;20019;-60
2022/05/21 04:42:40;;;;;;;29.90;17.77;;;;;;;;;;7392985;19;20014;-62
2022/05/21 04:45:09;;;;;;;33.67;18.02;;;;;;;;;;7391430;19;20078;-62
2022/05/21 04:47:38;;;;;;;33.88;18.63;;;;;;;;;;7391356;19;20015;-62
2022/05/21 04:50:08;;;;;;;33.20;18.30;;;;;;;;;;7390932;19;20022;-62
2022/05/21 04:52:36;;;;;;;31.48;17.90;;;;;;;;;;7389878;19;20471;-62
2022/05/21 04:55:05;;;;;;;32.10;17.77;;;;;;;;;;7394608;19;20402;-52
2022/05/21 04:57:33;;;;;;;33.78;18.65;;;;;;;;;;7417020;19;20090;-55
2022/05/21 05:00:05;;;;;;;34.47;18.88;;;;;;;;;;7411890;19;20006;-54
2022/05/21 05:02:34;;;;;;;34.55;17.40;;;;;;;;;;7412124;19;20014;-55
2022/05/21 05:05:02;;;;;;;31.58;17.35;;;;;;;;;;7412623;19;20010;-58
2022/05/21 05:07:31;;;;;;;35.70;17.83;;;;;;;;;;7404667;19;20026;-62
2022/05/21 05:09:59;;;;;;;29.02;16.05;;;;;;;;;;7393857;19;20039;-62
2022/05/21 05:12:28;;;;;;;35.75;17.02;;;;;;;;;;7391941;19;20058;-60
2022/05/21 05:14:57;;;;;;;32.00;16.17;;;;;;;;;;7394994;19;20010;-62
2022/05/21 05:17:28;;;;;;;27.35;14.73;;;;;;;;;;7402280;19;20347;-57
2022/05/21 05:19:57;;;;;;;33.83;14.45;;;;;;;;;;7396608;19;20019;-62
2022/05/21 05:22:25;;;;;;;35.35;14.70;;;;;;;;;;7398868;19;20030;-62
2022/05/21 05:24:54;;;;;;;33.03;13.77;;;;;;;;;;7398308;19;20029;-61
2022/05/21 05:27:23;;;;;;;29.73;14.45;;;;;;;;;;7400814;19;20011;-62
2022/05/21 05:29:52;;;;;;;31.15;14.68;;;;;;;;;;7397473;19;20017;-61
2022/05/21 05:32:20;;;;;;;25.05;13.43;;;;;;;;;;7397893;19;20471;-61
2022/05/21 05:34:51;;;;;;;28.00;14.20;;;;;;;;;;7395836;19;20042;-62
2022/05/21 05:37:20;;;;;;;31.00;13.88;;;;;;;;;;7399217;19;20006;-59
2022/05/21 05:39:48;;;;;;;27.58;13.48;;;;;;;;;;7396833;19;20479;-59
2022/05/21 05:42:17;;;;;;;33.65;12.98;;;;;;;;;;7398063;19;20011;-60
2022/05/21 05:44:45;;;;;;;33.30;14.65;;;;;;;;;;7397933;19;20018;-60
2022/05/21 05:47:14;;;;;;;28.45;12.18;;;;;;;;;;7398480;19;20017;-60
2022/05/21 05:49:42;;;;;;;26.95;12.52;;;;;;;;;;7396211;19;20025;-59
2022/05/21 05:52:13;;;;;;;25.17;11.27;;;;;;;;;;7397033;19;20019;-58
2022/05/21 05:54:42;;;;;;;28.67;11.45;;;;;;;;;;7395751;19;20407;-58
2022/05/21 05:57:11;;;;;;;23.25;10.20;;;;;;;;;;7397696;19;20014;-59
2022/05/21 05:59:49;;;;;;;29.88;10.88;;;;;;;;;;7396369;19;20090;-60
2022/05/21 06:04:58;;;;;;;30.70;9.43;;;;;;;;;;7397297;19;20018;-56
2022/05/21 06:07:29;;;;;;;27.25;9.00;;;;;;;;;;7400832;19;20028;-59
2022/05/21 06:10:01;;;;;;;23.75;8.02;;;;;;;;;;7396162;19;20022;-54
2022/05/21 06:12:31;;;;;;;24.20;8.07;;;;;;;;;;7397014;19;20014;-55
2022/05/21 06:15:00;;;;;;;22.75;7.90;;;;;;;;;;7396503;19;20465;-59
2022/05/21 06:17:29;;;;;;;24.77;7.65;;;;;;;;;;7401168;19;20121;-55
2022/05/21 06:19:57;;;;;;;26.17;7.80;;;;;;;;;;7395874;19;20019;-59
2022/05/21 06:22:25;;;;;;;23.35;7.38;;;;;;;;;;7396774;19;20049;-59
2022/05/21 06:24:56;;;;;;;19.77;6.63;;;;;;;;;;7396534;19;20022;-60
2022/05/21 06:27:25;;;;;;;19.77;6.55;;;;;;;;;;7400459;19;20007;-55
2022/05/21 06:29:53;;;;;;;27.05;7.20;;;;;;;;;;7395269;19;20015;-60
2022/05/21 06:32:22;;;;;;;22.60;7.40;;;;;;;;;;7396370;19;20017;-58
2022/05/21 06:34:50;;;;;;;16.95;6.05;;;;;;;;;;7394573;19;20018;-57
2022/05/21 06:37:19;;;;;;;22.55;7.00;;;;;;;;;;7397317;19;20025;-59
2022/05/21 06:39:47;;;;;;;20.67;7.22;;;;;;;;;;7394410;19;20022;-59
2022/05/21 06:42:18;;;;;;;19.50;6.43;;;;;;;;;;7395926;19;20010;-59
2022/05/21 06:44:47;;;;;;;21.10;6.22;;;;;;;;;;7394491;19;20016;-59
2022/05/21 06:47:15;;;;;;;22.15;6.25;;;;;;;;;;7396162;19;20565;-60
2022/05/21 06:49:43;;;;;;;16.35;5.35;;;;;;;;;;7395963;19;20014;-62
2022/05/21 06:52:12;;;;;;;17.10;5.38;;;;;;;;;;7396419;19;20033;-59
2022/05/21 06:54:40;;;;;;;16.00;5.40;;;;;;;;;;7397597;19;20007;-58
2022/05/21 06:57:13;;;;;;;20.80;5.53;;;;;;;;;;7392606;19;20026;-58
2022/05/21 06:59:44;;;;;;;15.93;5.28;;;;;;;;;;7394140;19;20095;-59
2022/05/21 07:02:12;;;;;;;21.92;5.57;;;;;;;;;;7395557;19;20483;-59
2022/05/21 07:07:43;;;;;;;20.88;5.78;;;;;;;;;;7395175;19;20021;-61
2022/05/21 07:10:13;;;;;;;17.35;5.35;;;;;;;;;;7393415;19;20595;-61
2022/05/21 07:12:42;;;;;;;13.98;4.93;;;;;;;;;;7393774;19;20021;-62
2022/05/21 07:15:14;;;;;;;20.17;4.82;;;;;;;;;;7394222;19;20026;-61
2022/05/21 07:17:42;;;;;;;14.02;5.10;;;;;;;;;;7394593;19;20021;-61
2022/05/21 07:20:14;;;;;;;13.82;4.72;;;;;;;;;;7395920;19;20025;-59
2022/05/21 07:22:44;;;;;;;18.48;4.50;;;;;;;;;;7394946;19;20070;-60
2022/05/21 07:25:13;;;;;;;16.63;4.57;;;;;;;;;;7396710;19;20006;-59
2022/05/21 07:27:42;;;;;;;14.90;4.20;;;;;;;;;;7395265;19;20006;-57
2022/05/21 07:30:11;;;;;;;13.77;4.15;;;;;;;;;;7393326;19;20505;-59
2022/05/21 07:32:44;;;;;;;16.10;4.15;;;;;;;;;;7393558;19;20479;-59
2022/05/21 07:35:13;;;;;;;10.52;3.90;;;;;;;;;;7394600;19;20018;-58
2022/05/21 07:37:42;;;;;;;14.65;4.18;;;;;;;;;;7394133;19;20022;-55
2022/05/21 07:40:11;;;;;;;16.35;4.40;;;;;;;;;;7393028;19;20014;-55
2022/05/21 07:42:40;;;;;;;14.00;4.57;;;;;;;;;;7394104;19;20014;-55
2022/05/21 07:45:10;;;;;;;14.35;4.63;;;;;;;;;;7395606;19;20006;-56
2022/05/21 07:47:41;;;;;;;18.27;4.68;;;;;;;;;;7394286;19;20007;-59
2022/05/21 07:50:10;;;;;;;15.40;4.70;;;;;;;;;;7392888;19;20018;-58
2022/05/21 07:52:39;;;;;;;16.73;4.25;;;;;;;;;;7394049;19;20074;-58
2022/05/21 07:55:09;;;;;;;16.48;4.05;;;;;;;;;;7393876;19;20019;-60
2022/05/21 07:57:37;;;;;;;15.63;4.50;;;;;;;;;;7393146;19;20038;-59
2022/05/21 08:00:06;;;;;;;16.20;3.95;;;;;;;;;;7391091;19;20034;-58
2022/05/21 08:02:44;;;;;;;18.77;4.68;;;;;;;;;;7392075;19;20018;-59
2022/05/21 08:05:13;;;;;;;14.73;4.45;;;;;;;;;;7394973;19;20029;-59
2022/05/21 08:07:41;;;;;;;14.23;4.30;;;;;;;;;;7393380;19;20010;-59
2022/05/21 08:10:10;;;;;;;14.90;4.10;;;;;;;;;;7392301;19;20011;-58
2022/05/21 08:12:39;;;;;;;11.10;3.90;;;;;;;;;;7391121;19;20011;-59
2022/05/21 08:15:08;;;;;;;15.40;4.32;;;;;;;;;;7393023;19;20400;-60
2022/05/21 08:17:36;;;;;;;14.30;4.57;;;;;;;;;;7392482;19;20021;-60
2022/05/21 08:20:10;;;;;;;15.82;4.07;;;;;;;;;;7391304;19;20019;-59
2022/05/21 08:28:01;;;;;;;13.70;4.00;;;;;;;;;;7392146;19;20021;-60
2022/05/21 08:30:29;;;;;;;19.15;4.03;;;;;;;;;;7390946;19;20443;-54
2022/05/21 08:33:01;;;;;;;14.18;4.00;;;;;;;;;;7391468;19;20025;-60
2022/05/21 08:35:33;;;;;;;15.63;4.00;;;;;;;;;;7392860;19;20309;-59
2022/05/21 08:38:03;;;;;;;10.15;3.58;;;;;;;;;;7393722;19;20037;-58
2022/05/21 08:40:42;;;;;;;13.40;4.28;;;;;;;;;;7407102;19;20020;-59
2022/05/21 08:43:16;;;;;;;12.40;4.03;;;;;;;;;;7413531;19;20036;-59
2022/05/21 08:46:00;;;;;;;13.25;3.92;;;;;;;;;;7418668;19;20022;-58
2022/05/21 08:48:31;;;;;;;14.48;3.65;;;;;;;;;;7410210;19;20042;-59
2022/05/21 08:51:04;;;;;;;14.27;4.07;;;;;;;;;;7399290;19;20018;-59
2022/05/21 08:53:35;;;;;;;10.57;3.00;;;;;;;;;;7396642;19;20018;-59
2022/05/21 08:56:05;;;;;;;10.43;3.45;;;;;;;;;;7394749;19;20018;-59
2022/05/21 08:58:35;;;;;;;10.25;3.15;;;;;;;;;;7392853;19;20019;-59
2022/05/21 09:01:03;;;;;;;12.68;3.35;;;;;;;;;;7391615;19;20025;-59
2022/05/21 09:03:32;;;;;;;12.82;3.65;;;;;;;;;;7392615;19;20010;-59
2022/05/21 09:06:08;;;;;;;13.65;3.90;;;;;;;;;;7394597;19;20018;-58
2022/05/21 09:08:42;;;;;;;10.02;3.38;;;;;;;;;;7391479;19;20015;-59
2022/05/21 09:11:14;;;;;;;11.60;3.10;;;;;;;;;;7390827;19;20378;-57
2022/05/21 09:13:46;;;;;;;8.52;3.40;;;;;;;;;;7389444;19;20022;-59
2022/05/21 09:18:58;;;;;;;11.55;3.63;;;;;;;;;;7390552;19;20014;-59
2022/05/21 09:21:32;;;;;;;14.77;4.38;;;;;;;;;;7389450;19;20039;-58
2022/05/21 09:24:01;;;;;;;13.50;5.03;;;;;;;;;;7390908;19;20047;-59
2022/05/21 09:26:31;;;;;;;13.30;4.50;;;;;;;;;;7389148;19;20018;-60
2022/05/21 09:29:14;;;;;;;16.20;4.60;;;;;;;;;;7389754;19;20479;-60
2022/05/21 09:31:42;;;;;;;13.32;3.67;;;;;;;;;;7390565;19;20070;-60
2022/05/21 09:34:17;;;;;;;14.90;3.80;;;;;;;;;;7389699;19;20523;-58
2022/05/21 09:36:48;;;;;;;12.15;3.75;;;;;;;;;;7388148;19;20082;-59
2022/05/21 09:39:30;;;;;;;13.38;5.13;;;;;;;;;;7389492;19;20022;-59
2022/05/21 09:42:08;;;;;;;13.95;4.25;;;;;;;;;;7391232;19;20018;-58
2022/05/21 09:47:23;;;;;;;14.48;4.50;;;;;;;;;;7387869;19;20351;-59
2022/05/21 09:50:05;;;;;;;15.75;4.22;;;;;;;;;;7391488;19;20352;-58
2022/05/21 09:52:36;;;;;;;16.13;5.22;;;;;;;;;;7391900;19;20096;-57
2022/05/21 09:55:05;;;;;;;14.30;5.70;;;;;;;;;;7389296;19;20054;-58
2022/05/21 09:57:37;;;;;;;15.65;5.88;;;;;;;;;;7389730;19;20026;-58
2022/05/21 10:00:08;;;;;;;13.68;6.25;;;;;;;;;;7389401;19;20021;-59
2022/05/21 10:02:46;;;;;;;13.50;6.22;;;;;;;;;;7399501;19;20090;-59
2022/05/21 10:05:16;;;;;;;15.43;6.65;;;;;;;;;;7395885;19;20090;-60
2022/05/21 10:13:12;;;;;;;11.52;5.30;;;;;;;;;;7399754;19;20032;-59
2022/05/21 10:15:43;;;;;;;10.98;4.50;;;;;;;;;;7394576;19;20024;-59
2022/05/21 10:18:15;;;;;;;13.88;4.72;;;;;;;;;;7396357;19;20372;-58
2022/05/21 10:20:45;;;;;;;13.63;5.28;;;;;;;;;;7397483;19;20105;-59
2022/05/21 10:23:23;;;;;;;11.18;4.95;;;;;;;;;;7400373;19;20086;-59
2022/05/21 10:25:54;;;;;;;15.57;5.68;;;;;;;;;;7394823;19;20018;-59
2022/05/21 10:28:28;;;;;;;14.50;5.57;;;;;;;;;;7396192;19;20021;-55
2022/05/21 10:31:09;;;;;;;12.57;5.50;;;;;;;;;;7396185;19;20010;-59
2022/05/21 10:33:45;;;;;;;11.35;5.20;;;;;;;;;;7399670;19;20010;-58
2022/05/21 10:36:16;;;;;;;11.85;5.47;;;;;;;;;;7393715;19;20015;-55
2022/05/21 10:39:02;;;;;;;13.38;5.20;;;;;;;;;;7396208;19;20019;-57
2022/05/21 10:41:37;;;;;;;13.32;5.68;;;;;;;;;;7395479;19;20006;-59
2022/05/21 10:44:12;;;;;;;14.68;5.10;;;;;;;;;;7396368;19;20025;-58
2022/05/21 10:46:45;;;;;;;12.82;4.50;;;;;;;;;;7354307;19;105127;-59
2022/05/21 10:49:23;;;;;;;15.52;4.20;;;;;;;;;;7395610;19;20098;-58
2022/05/21 10:51:55;;;;;;;11.80;4.18;;;;;;;;;;7394777;19;20467;-58
2022/05/21 10:54:40;;;;;;;10.03;3.70;;;;;;;;;;7399338;19;20010;-59
2022/05/21 10:57:18;;;;;;;12.77;4.45;;;;;;;;;;7388346;19;20018;-55
2022/05/21 10:59:52;;;;;;;12.15;4.70;;;;;;;;;;7391065;19;20011;-58
2022/05/21 11:02:34;;;;;;;12.70;4.80;;;;;;;;;;7395424;19;20011;-55
2022/05/21 11:05:13;;;;;;;7.57;3.53;;;;;;;;;;7393660;19;20025;-59
2022/05/21 11:07:44;;;;;;;12.60;4.05;;;;;;;;;;7394487;19;20026;-58
2022/05/21 11:10:18;;;;;;;11.15;4.20;;;;;;;;;;7396121;19;20015;-54
2022/05/21 11:12:52;;;;;;;12.95;5.15;;;;;;;;;;7397994;19;20024;-59
2022/05/21 11:15:26;;;;;;;12.25;4.63;;;;;;;;;;7395474;19;20015;-58
2022/05/21 11:17:55;;;;;;;11.20;4.30;;;;;;;;;;7395583;19;20535;-59
2022/05/21 11:20:26;;;;;;;11.10;5.05;;;;;;;;;;7393552;19;20332;-62
2022/05/21 11:22:57;;;;;;;13.40;4.38;;;;;;;;;;7397854;19;20045;-61
2022/05/21 11:25:34;;;;;;;10.20;3.65;;;;;;;;;;7392477;19;20011;-61
2022/05/21 11:28:09;;;;;;;11.02;4.07;;;;;;;;;;7393946;19;20344;-62
2022/05/21 11:30:38;;;;;;;13.85;4.68;;;;;;;;;;7393049;19;20018;-61
2022/05/21 11:38:38;;;;;;;13.55;5.82;;;;;;;;;;7393637;19;20432;-61
2022/05/21 11:43:56;;;;;;;10.25;5.78;;;;;;;;;;7397310;19;20033;-61
2022/05/21 11:46:35;;;;;;;13.73;5.85;;;;;;;;;;7390792;19;20014;-55
2022/05/21 11:49:18;;;;;;;11.82;6.53;;;;;;;;;;7394791;19;20022;-59
2022/05/21 11:51:47;;;;;;;14.73;6.50;;;;;;;;;;7396586;19;20015;-59
2022/05/21 11:54:30;;;;;;;14.20;6.00;;;;;;;;;;7397259;19;20129;-59
2022/05/21 11:57:06;;;;;;;12.70;5.45;;;;;;;;;;7394921;19;20475;-57
2022/05/21 11:59:50;;;;;;;11.00;5.05;;;;;;;;;;7394560;19;20014;-60
2022/05/21 12:02:23;;;;;;;13.63;5.03;;;;;;;;;;7396756;19;20022;-59
2022/05/21 12:04:54;;;;;;;11.15;4.53;;;;;;;;;;7396404;19;20010;-58
2022/05/21 12:07:38;;;;;;;13.25;4.75;;;;;;;;;;7394315;19;20026;-57
2022/05/21 12:10:11;;;;;;;9.98;4.10;;;;;;;;;;7393441;19;20014;-59
2022/05/21 12:12:39;;;;;;;;;;;;;;;;;;7396693;19;20017;-59
2022/05/21 12:15:18;;;;;;;9.77;3.70;;;;;;;;;;7395389;19;20243;-58
2022/05/21 12:18:03;;;;;;;10.10;4.10;;;;;;;;;;7395893;19;20108;-58
2022/05/21 12:20:42;;;;;;;14.32;4.50;;;;;;;;;;7393194;19;20444;-58
2022/05/21 12:23:13;;;;;;;11.48;4.03;;;;;;;;;;7393533;19;20435;-58
2022/05/21 12:25:57;;;;;;;10.18;4.07;;;;;;;;;;7394005;19;20014;-59
2022/05/21 12:28:27;;;;;;;10.48;4.20;;;;;;;;;;7394868;19;20467;-60
2022/05/21 12:31:07;;;;;;;9.88;4.20;;;;;;;;;;7394687;19;20015;-60
2022/05/21 12:33:41;;;;;;;11.27;4.00;;;;;;;;;;7394008;19;20007;-59
2022/05/21 12:36:14;;;;;;;9.30;3.63;;;;;;;;;;7394133;19;20049;-59
2022/05/21 12:38:46;;;;;;;10.80;4.22;;;;;;;;;;7394928;19;20006;-60
2022/05/21 12:41:17;;;;;;;12.60;3.67;;;;;;;;;;7393881;19;20017;-56
2022/05/21 12:43:47;;;;;;;11.95;3.85;;;;;;;;;;7394976;19;20015;-56
2022/05/21 12:46:25;;;;;;;9.45;3.67;;;;;;;;;;7392438;19;20363;-55
2022/05/21 12:48:55;;;;;;;9.80;4.10;;;;;;;;;;7393116;19;20017;-58
2022/05/21 12:51:29;;;;;;;8.40;3.35;;;;;;;;;;7392571;19;20625;-56
2022/05/21 12:53:58;;;;;;;10.63;3.95;;;;;;;;;;7393585;19;20098;-57
2022/05/21 12:56:29;;;;;;;8.98;3.97;;;;;;;;;;7391638;19;20019;-59
2022/05/21 12:59:09;;;;;;;10.25;3.72;;;;;;;;;;7393875;19;20025;-60
2022/05/21 13:01:46;;;;;;;8.38;3.53;;;;;;;;;;7395286;19;20009;-56
2022/05/21 13:04:25;;;;;;;10.43;3.92;;;;;;;;;;7391598;19;20040;-57
2022/05/21 13:06:55;;;;;;;12.75;4.65;;;;;;;;;;7389773;19;20014;-59
2022/05/21 13:09:24;;;;;;;14.93;4.57;;;;;;;;;;7389792;19;20011;-57
2022/05/21 13:11:57;;;;;;;9.52;3.90;;;;;;;;;;7391316;19;20010;-59
2022/05/21 13:14:32;;;;;;;13.60;4.07;;;;;;;;;;7392426;19;20006;-57
2022/05/21 13:17:04;;;;;;;10.40;4.05;;;;;;;;;;7387519;19;20460;-62
2022/05/21 13:19:40;;;;;;;14.00;4.35;;;;;;;;;;7391713;19;20011;-59
2022/05/21 13:22:13;;;;;;;10.75;4.15;;;;;;;;;;7390715;19;20025;-61
2022/05/21 13:24:46;;;;;;;10.52;4.07;;;;;;;;;;7391904;19;20122;-61
2022/05/21 13:27:16;;;;;;;12.57;3.72;;;;;;;;;;7390914;19;20031;-61
2022/05/21 13:29:44;;;;;;;9.43;2.95;;;;;;;;;;7392470;19;20014;-65
2022/05/21 13:32:21;;;;;;;9.00;3.33;;;;;;;;;;7394375;19;20355;-61
2022/05/21 13:34:50;;;;;;;6.88;2.70;;;;;;;;;;7393394;19;20012;-58
2022/05/21 13:37:18;;;;;;;6.63;2.67;;;;;;;;;;7395205;19;20018;-53
2022/05/21 13:39:58;;;;;;;8.75;2.95;;;;;;;;;;7398031;19;20029;-58
2022/05/21 13:42:27;;;;;;;6.68;2.50;;;;;;;;;;7398795;19;20040;-58
2022/05/21 13:45:01;;;;;;;10.32;3.17;;;;;;;;;;7398875;19;20024;-58
2022/05/21 13:47:34;;;;;;;10.32;3.28;;;;;;;;;;7397073;19;20014;-58
2022/05/21 13:50:03;;;;;;;9.52;3.20;;;;;;;;;;7398194;19;20025;-59
2022/05/21 13:52:32;;;;;;;8.77;3.13;;;;;;;;;;7398938;19;20018;-60
2022/05/21 13:55:01;;;;;;;8.73;3.50;;;;;;;;;;7399721;19;20032;-59
2022/05/21 13:57:31;;;;;;;8.50;3.03;;;;;;;;;;7396886;19;20010;-60
2022/05/21 14:00:01;;;;;;;10.85;3.70;;;;;;;;;;7400102;19;20042;-56
2022/05/21 14:02:35;;;;;;;8.00;3.85;;;;;;;;;;7398129;19;20022;-55
2022/05/21 14:05:18;;;;;;;10.80;2.80;;;;;;;;;;7399124;19;20371;-57
2022/05/21 14:07:51;;;;;;;10.60;3.00;;;;;;;;;;7400853;19;20007;-59
2022/05/21 14:10:31;;;;;;;10.02;3.50;;;;;;;;;;7399223;19;20014;-61
2022/05/21 14:12:59;;;;;;;8.23;2.70;;;;;;;;;;7398278;19;20019;-57
2022/05/21 14:15:32;;;;;;;7.97;2.45;;;;;;;;;;7396616;19;20022;-57
2022/05/21 14:18:06;;;;;;;12.20;2.67;;;;;;;;;;7398027;19;20178;-56
2022/05/21 14:20:35;;;;;;;11.25;3.17;;;;;;;;;;7400001;19;20023;-61
2022/05/21 14:23:19;;;;;;;9.07;2.97;;;;;;;;;;7399271;19;20483;-60
2022/05/21 14:25:47;;;;;;;7.53;3.00;;;;;;;;;;7398493;19;20015;-61
2022/05/21 14:28:23;;;;;;;7.00;2.70;;;;;;;;;;7395954;19;20017;-58
2022/05/21 14:30:53;;;;;;;9.25;3.22;;;;;;;;;;7396100;19;20054;-60
2022/05/21 14:33:26;;;;;;;9.20;2.97;;;;;;;;;;7399309;19;20010;-58
2022/05/21 14:35:56;;;;;;;8.32;2.83;;;;;;;;;;7398401;19;20015;-59
2022/05/21 14:38:25;;;;;;;10.05;3.25;;;;;;;;;;7398573;19;20032;-56
2022/05/21 14:40:56;;;;;;;10.73;3.15;;;;;;;;;;7398440;19;20022;-58
2022/05/21 14:43:27;;;;;;;8.85;3.30;;;;;;;;;;7398476;19;20014;-59
2022/05/21 14:45:57;;;;;;;12.40;2.95;;;;;;;;;;7397753;19;20023;-58
2022/05/21 14:48:25;;;;;;;7.47;2.92;;;;;;;;;;7393860;19;20017;-58
2022/05/21 14:53:37;;;;;;;10.80;3.40;;;;;;;;;;7398541;19;20017;-57
2022/05/21 14:56:06;;;;;;;8.65;3.03;;;;;;;;;;7397388;19;20356;-59
2022/05/21 14:58:35;;;;;;;9.57;3.10;;;;;;;;;;7398201;19;20348;-59
2022/05/21 15:01:03;;;;;;;14.13;5.18;;;;;;;;;;7396629;19;20018;-58
2022/05/21 15:03:37;;;;;;;11.80;5.25;;;;;;;;;;7397719;19;20190;-57
2022/05/21 15:06:06;;;;;;;17.67;6.55;;;;;;;;;;7394603;19;20010;-62
2022/05/21 15:08:36;;;;;;;10.57;3.22;;;;;;;;;;7397933;19;20027;-59
2022/05/21 15:11:04;;;;;;;10.25;3.08;;;;;;;;;;7397488;19;20011;-61
2022/05/21 15:13:34;;;;;;;7.47;3.00;;;;;;;;;;7398357;19;20010;-62
2022/05/21 15:16:02;;;;;;;8.20;3.85;;;;;;;;;;7394090;19;20014;-62
2022/05/21 15:18:31;;;;;;;7.05;3.35;;;;;;;;;;7394022;19;20014;-62
2022/05/21 15:21:02;;;;;;;12.93;3.30;;;;;;;;;;7398462;19;20022;-59
2022/05/21 15:23:30;;;;;;;7.13;2.42;;;;;;;;;;7398777;19;20343;-62